sensor_id;sensor_type;location;lat;lon;timestamp;P1;durP1;ratioP1;P2;durP2;ratioP2
7919;SDS011;18778;47.610;9.776;2023-06-14T00:01:20;4.17;;;3.77;;
7919;SDS011;18778;47.610;9.776;2023-06-14T00:03:47;5.13;;;4.00;;
7919;SDS011;18778;47.610;9.776;2023-06-14T00:06:13;4.73;;;3.90;;
7919;SDS011;18778;47.610;9.776;2023-06-14T00:08:39;5.30;;;4.03;;
7919;SDS011;18778;47.610;9.776;2023-06-14T00:11:05;7.00;;;4.00;;
7919;SDS011;18778;47.610;9.776;2023-06-14T00:13:31;5.77;;;3.97;;
7919;SDS011;18778;47.610;9.776;2023-06-14T00:15:57;5.17;;;3.83;;
7919;SDS011;18778;47.610;9.776;2023-06-14T00:18:23;4.53;;;4.13;;
7919;SDS011;18778;47.610;9.776;2023-06-14T00:20:54;5.07;;;4.03;;
7919;SDS011;18778;47.610;9.776;2023-06-14T00:23:20;6.77;;;4.27;;
7919;SDS011;18778;47.610;9.776;2023-06-14T00:25:46;4.70;;;4.30;;
7919;SDS011;18778;47.610;9.776;2023-06-14T00:28:12;5.20;;;4.30;;
7919;SDS011;18778;47.610;9.776;2023-06-14T00:30:38;6.27;;;5.23;;
7919;SDS011;18778;47.610;9.776;2023-06-14T00:33:04;5.80;;;4.80;;
7919;SDS011;18778;47.610;9.776;2023-06-14T00:35:29;6.30;;;5.10;;
7919;SDS011;18778;47.610;9.776;2023-06-14T00:37:55;9.67;;;5.13;;
7919;SDS011;18778;47.610;9.776;2023-06-14T00:40:21;5.53;;;5.03;;
7919;SDS011;18778;47.610;9.776;2023-06-14T00:42:46;5.77;;;4.93;;
7919;SDS011;18778;47.610;9.776;2023-06-14T00:45:12;5.20;;;4.37;;
7919;SDS011;18778;47.610;9.776;2023-06-14T00:47:38;5.07;;;4.57;;
7919;SDS011;18778;47.610;9.776;2023-06-14T00:50:06;8.03;;;4.13;;
7919;SDS011;18778;47.610;9.776;2023-06-14T00:52:33;5.37;;;4.30;;
7919;SDS011;18778;47.610;9.776;2023-06-14T00:54:59;5.30;;;4.80;;
7919;SDS011;18778;47.610;9.776;2023-06-14T00:57:25;4.70;;;4.30;;
7919;SDS011;18778;47.610;9.776;2023-06-14T00:59:52;6.30;;;4.50;;
7919;SDS011;18778;47.610;9.776;2023-06-14T01:02:17;5.10;;;4.60;;
7919;SDS011;18778;47.610;9.776;2023-06-14T01:04:45;5.23;;;4.30;;
7919;SDS011;18778;47.610;9.776;2023-06-14T01:07:23;6.27;;;4.50;;
7919;SDS011;18778;47.610;9.776;2023-06-14T01:10:06;5.93;;;4.63;;
7919;SDS011;18778;47.610;9.776;2023-06-14T01:15:47;7.10;;;4.40;;
7919;SDS011;18778;47.610;9.776;2023-06-14T01:18:14;7.23;;;5.13;;
7919;SDS011;18778;47.610;9.776;2023-06-14T01:20:43;7.80;;;5.13;;
7919;SDS011;18778;47.610;9.776;2023-06-14T01:23:10;7.73;;;5.00;;
7919;SDS011;18778;47.610;9.776;2023-06-14T01:25:38;5.40;;;4.73;;
7919;SDS011;18778;47.610;9.776;2023-06-14T01:28:06;6.23;;;4.97;;
7919;SDS011;18778;47.610;9.776;2023-06-14T01:30:36;5.47;;;4.97;;
7919;SDS011;18778;47.610;9.776;2023-06-14T01:33:03;6.83;;;4.83;;
7919;SDS011;18778;47.610;9.776;2023-06-14T01:35:30;7.53;;;5.60;;
7919;SDS011;18778;47.610;9.776;2023-06-14T01:37:56;6.33;;;5.30;;
7919;SDS011;18778;47.610;9.776;2023-06-14T01:40:23;6.67;;;5.13;;
7919;SDS011;18778;47.610;9.776;2023-06-14T01:42:49;5.80;;;5.00;;
7919;SDS011;18778;47.610;9.776;2023-06-14T01:45:15;5.67;;;5.03;;
7919;SDS011;18778;47.610;9.776;2023-06-14T01:47:42;8.43;;;5.33;;
7919;SDS011;18778;47.610;9.776;2023-06-14T01:50:09;6.97;;;5.37;;
7919;SDS011;18778;47.610;9.776;2023-06-14T01:52:36;7.37;;;5.80;;
7919;SDS011;18778;47.610;9.776;2023-06-14T01:55:02;8.10;;;5.83;;
7919;SDS011;18778;47.610;9.776;2023-06-14T01:57:31;6.93;;;5.93;;
7919;SDS011;18778;47.610;9.776;2023-06-14T01:59:57;7.77;;;6.07;;
7919;SDS011;18778;47.610;9.776;2023-06-14T02:02:22;6.20;;;5.60;;
7919;SDS011;18778;47.610;9.776;2023-06-14T02:04:48;7.47;;;5.30;;
7919;SDS011;18778;47.610;9.776;2023-06-14T02:07:13;9.03;;;5.67;;
7919;SDS011;18778;47.610;9.776;2023-06-14T02:09:40;7.77;;;5.20;;
7919;SDS011;18778;47.610;9.776;2023-06-14T02:12:06;5.33;;;4.83;;
7919;SDS011;18778;47.610;9.776;2023-06-14T02:14:32;7.80;;;5.63;;
7919;SDS011;18778;47.610;9.776;2023-06-14T02:16:58;6.57;;;4.93;;
7919;SDS011;18778;47.610;9.776;2023-06-14T02:19:25;5.20;;;4.70;;
7919;SDS011;18778;47.610;9.776;2023-06-14T02:21:51;9.03;;;5.00;;
7919;SDS011;18778;47.610;9.776;2023-06-14T02:24:17;7.60;;;5.50;;
7919;SDS011;18778;47.610;9.776;2023-06-14T02:26:43;8.10;;;5.80;;
7919;SDS011;18778;47.610;9.776;2023-06-14T02:29:08;6.50;;;5.43;;
7919;SDS011;18778;47.610;9.776;2023-06-14T02:31:37;7.90;;;5.23;;
7919;SDS011;18778;47.610;9.776;2023-06-14T02:34:03;5.80;;;5.30;;
7919;SDS011;18778;47.610;9.776;2023-06-14T02:36:29;5.67;;;4.90;;
7919;SDS011;18778;47.610;9.776;2023-06-14T02:38:55;8.43;;;5.23;;
7919;SDS011;18778;47.610;9.776;2023-06-14T02:41:22;5.83;;;5.27;;
7919;SDS011;18778;47.610;9.776;2023-06-14T02:43:49;6.37;;;5.40;;
7919;SDS011;18778;47.610;9.776;2023-06-14T02:46:15;5.90;;;5.37;;
7919;SDS011;18778;47.610;9.776;2023-06-14T02:48:40;5.93;;;4.97;;
7919;SDS011;18778;47.610;9.776;2023-06-14T02:51:06;6.77;;;4.90;;
7919;SDS011;18778;47.610;9.776;2023-06-14T02:53:33;6.13;;;5.53;;
7919;SDS011;18778;47.610;9.776;2023-06-14T02:55:59;5.43;;;4.93;;
7919;SDS011;18778;47.610;9.776;2023-06-14T02:58:25;6.33;;;5.73;;
7919;SDS011;18778;47.610;9.776;2023-06-14T03:00:51;5.73;;;5.20;;
7919;SDS011;18778;47.610;9.776;2023-06-14T03:03:20;6.10;;;5.50;;
7919;SDS011;18778;47.610;9.776;2023-06-14T03:05:46;5.30;;;4.80;;
7919;SDS011;18778;47.610;9.776;2023-06-14T03:08:14;6.40;;;5.17;;
7919;SDS011;18778;47.610;9.776;2023-06-14T03:11:15;6.80;;;5.97;;
7919;SDS011;18778;47.610;9.776;2023-06-14T03:13:38;6.90;;;5.67;;
7919;SDS011;18778;47.610;9.776;2023-06-14T03:16:06;6.30;;;5.70;;
7919;SDS011;18778;47.610;9.776;2023-06-14T03:21:54;8.70;;;5.43;;
7919;SDS011;18778;47.610;9.776;2023-06-14T03:24:22;6.53;;;5.53;;
7919;SDS011;18778;47.610;9.776;2023-06-14T03:26:48;9.73;;;6.37;;
7919;SDS011;18778;47.610;9.776;2023-06-14T03:29:14;6.97;;;5.87;;
7919;SDS011;18778;47.610;9.776;2023-06-14T03:31:56;7.17;;;5.80;;
7919;SDS011;18778;47.610;9.776;2023-06-14T03:34:23;7.13;;;5.93;;
7919;SDS011;18778;47.610;9.776;2023-06-14T03:36:48;6.50;;;5.80;;
7919;SDS011;18778;47.610;9.776;2023-06-14T03:39:14;6.40;;;5.70;;
7919;SDS011;18778;47.610;9.776;2023-06-14T03:41:40;8.20;;;5.27;;
7919;SDS011;18778;47.610;9.776;2023-06-14T03:44:05;7.17;;;5.90;;
7919;SDS011;18778;47.610;9.776;2023-06-14T03:46:31;8.33;;;5.70;;
7919;SDS011;18778;47.610;9.776;2023-06-14T03:48:56;9.63;;;5.63;;
7919;SDS011;18778;47.610;9.776;2023-06-14T03:51:22;5.93;;;5.33;;
7919;SDS011;18778;47.610;9.776;2023-06-14T03:53:48;5.87;;;5.33;;
7919;SDS011;18778;47.610;9.776;2023-06-14T03:56:14;5.87;;;5.23;;
7919;SDS011;18778;47.610;9.776;2023-06-14T03:58:39;7.10;;;5.37;;
7919;SDS011;18778;47.610;9.776;2023-06-14T04:01:05;6.50;;;5.27;;
7919;SDS011;18778;47.610;9.776;2023-06-14T04:03:31;6.20;;;5.47;;
7919;SDS011;18778;47.610;9.776;2023-06-14T04:05:58;5.77;;;5.17;;
7919;SDS011;18778;47.610;9.776;2023-06-14T04:08:24;6.00;;;5.40;;
7919;SDS011;18778;47.610;9.776;2023-06-14T04:10:50;7.00;;;5.43;;
7919;SDS011;18778;47.610;9.776;2023-06-14T04:13:16;7.57;;;5.43;;
7919;SDS011;18778;47.610;9.776;2023-06-14T04:15:42;9.27;;;5.50;;
7919;SDS011;18778;47.610;9.776;2023-06-14T04:18:08;8.80;;;5.43;;
7919;SDS011;18778;47.610;9.776;2023-06-14T04:20:34;10.33;;;5.70;;
7919;SDS011;18778;47.610;9.776;2023-06-14T04:23:13;6.43;;;5.03;;
7919;SDS011;18778;47.610;9.776;2023-06-14T04:25:40;6.00;;;5.50;;
7919;SDS011;18778;47.610;9.776;2023-06-14T04:28:09;6.70;;;5.33;;
7919;SDS011;18778;47.610;9.776;2023-06-14T04:30:36;7.93;;;5.13;;
7919;SDS011;18778;47.610;9.776;2023-06-14T04:33:03;10.20;;;5.70;;
7919;SDS011;18778;47.610;9.776;2023-06-14T04:35:30;6.07;;;5.53;;
7919;SDS011;18778;47.610;9.776;2023-06-14T04:37:57;5.77;;;5.10;;
7919;SDS011;18778;47.610;9.776;2023-06-14T04:40:29;6.47;;;5.13;;
7919;SDS011;18778;47.610;9.776;2023-06-14T04:42:55;5.83;;;4.90;;
7919;SDS011;18778;47.610;9.776;2023-06-14T04:45:22;5.80;;;5.20;;
7919;SDS011;18778;47.610;9.776;2023-06-14T04:47:48;5.80;;;5.20;;
7919;SDS011;18778;47.610;9.776;2023-06-14T04:50:16;7.30;;;4.93;;
7919;SDS011;18778;47.610;9.776;2023-06-14T04:52:42;6.03;;;5.00;;
7919;SDS011;18778;47.610;9.776;2023-06-14T04:55:07;5.37;;;4.93;;
7919;SDS011;18778;47.610;9.776;2023-06-14T04:57:33;7.43;;;5.37;;
7919;SDS011;18778;47.610;9.776;2023-06-14T05:00:00;8.73;;;6.30;;
7919;SDS011;18778;47.610;9.776;2023-06-14T05:02:26;5.30;;;4.60;;
7919;SDS011;18778;47.610;9.776;2023-06-14T05:04:53;5.60;;;5.03;;
7919;SDS011;18778;47.610;9.776;2023-06-14T05:07:19;7.63;;;4.60;;
7919;SDS011;18778;47.610;9.776;2023-06-14T05:09:48;5.40;;;4.90;;
7919;SDS011;18778;47.610;9.776;2023-06-14T05:12:14;5.20;;;4.47;;
7919;SDS011;18778;47.610;9.776;2023-06-14T05:14:43;4.93;;;4.43;;
7919;SDS011;18778;47.610;9.776;2023-06-14T05:17:09;5.03;;;4.53;;
7919;SDS011;18778;47.610;9.776;2023-06-14T05:19:35;5.87;;;4.67;;
7919;SDS011;18778;47.610;9.776;2023-06-14T05:22:01;4.83;;;4.43;;
7919;SDS011;18778;47.610;9.776;2023-06-14T05:24:28;4.67;;;4.23;;
7919;SDS011;18778;47.610;9.776;2023-06-14T05:26:57;8.80;;;4.10;;
7919;SDS011;18778;47.610;9.776;2023-06-14T05:29:23;5.07;;;4.57;;
7919;SDS011;18778;47.610;9.776;2023-06-14T05:31:49;4.73;;;4.33;;
7919;SDS011;18778;47.610;9.776;2023-06-14T05:34:21;4.53;;;4.13;;
7919;SDS011;18778;47.610;9.776;2023-06-14T05:37:02;5.47;;;4.67;;
7919;SDS011;18778;47.610;9.776;2023-06-14T05:39:44;5.00;;;4.30;;
7919;SDS011;18778;47.610;9.776;2023-06-14T05:48:17;4.87;;;4.30;;
7919;SDS011;18778;47.610;9.776;2023-06-14T05:50:49;5.17;;;4.67;;
7919;SDS011;18778;47.610;9.776;2023-06-14T05:53:22;4.40;;;4.00;;
7919;SDS011;18778;47.610;9.776;2023-06-14T05:56:03;4.87;;;4.37;;
7919;SDS011;18778;47.610;9.776;2023-06-14T05:58:48;4.77;;;4.27;;
7919;SDS011;18778;47.610;9.776;2023-06-14T06:01:35;6.07;;;4.57;;
7919;SDS011;18778;47.610;9.776;2023-06-14T06:04:01;5.03;;;4.20;;
7919;SDS011;18778;47.610;9.776;2023-06-14T06:06:34;4.50;;;4.10;;
7919;SDS011;18778;47.610;9.776;2023-06-14T06:09:04;4.40;;;4.00;;
7919;SDS011;18778;47.610;9.776;2023-06-14T06:11:34;5.37;;;4.13;;
7919;SDS011;18778;47.610;9.776;2023-06-14T06:14:03;5.13;;;4.17;;
7919;SDS011;18778;47.610;9.776;2023-06-14T06:16:35;5.97;;;4.57;;
7919;SDS011;18778;47.610;9.776;2023-06-14T06:19:04;6.80;;;4.37;;
7919;SDS011;18778;47.610;9.776;2023-06-14T06:21:33;6.00;;;4.27;;
7919;SDS011;18778;47.610;9.776;2023-06-14T06:23:59;4.80;;;4.40;;
7919;SDS011;18778;47.610;9.776;2023-06-14T06:26:28;6.37;;;4.40;;
7919;SDS011;18778;47.610;9.776;2023-06-14T06:28:54;4.40;;;4.00;;
7919;SDS011;18778;47.610;9.776;2023-06-14T06:31:22;4.57;;;4.00;;
7919;SDS011;18778;47.610;9.776;2023-06-14T06:33:48;5.07;;;4.10;;
7919;SDS011;18778;47.610;9.776;2023-06-14T06:36:14;5.93;;;4.37;;
7919;SDS011;18778;47.610;9.776;2023-06-14T06:38:43;7.43;;;4.00;;
7919;SDS011;18778;47.610;9.776;2023-06-14T06:41:09;5.17;;;4.20;;
7919;SDS011;18778;47.610;9.776;2023-06-14T06:43:43;5.40;;;3.87;;
7919;SDS011;18778;47.610;9.776;2023-06-14T06:46:20;4.87;;;3.87;;
7919;SDS011;18778;47.610;9.776;2023-06-14T06:48:55;4.20;;;3.80;;
7919;SDS011;18778;47.610;9.776;2023-06-14T06:51:27;4.33;;;3.93;;
7919;SDS011;18778;47.610;9.776;2023-06-14T06:53:53;4.50;;;3.83;;
7919;SDS011;18778;47.610;9.776;2023-06-14T06:56:19;5.80;;;3.97;;
7919;SDS011;18778;47.610;9.776;2023-06-14T06:58:47;7.33;;;4.90;;
7919;SDS011;18778;47.610;9.776;2023-06-14T07:01:13;9.63;;;3.73;;
7919;SDS011;18778;47.610;9.776;2023-06-14T07:03:39;5.17;;;3.50;;
7919;SDS011;18778;47.610;9.776;2023-06-14T07:06:05;4.53;;;3.90;;
7919;SDS011;18778;47.610;9.776;2023-06-14T07:08:31;4.10;;;3.80;;
7919;SDS011;18778;47.610;9.776;2023-06-14T07:10:57;5.87;;;4.10;;
7919;SDS011;18778;47.610;9.776;2023-06-14T07:13:23;7.63;;;4.23;;
7919;SDS011;18778;47.610;9.776;2023-06-14T07:15:49;4.40;;;3.80;;
7919;SDS011;18778;47.610;9.776;2023-06-14T07:18:15;4.53;;;4.10;;
7919;SDS011;18778;47.610;9.776;2023-06-14T07:20:41;4.00;;;3.60;;
7919;SDS011;18778;47.610;9.776;2023-06-14T07:23:08;6.17;;;3.80;;
7919;SDS011;18778;47.610;9.776;2023-06-14T07:25:33;4.47;;;4.07;;
7919;SDS011;18778;47.610;9.776;2023-06-14T07:27:59;4.20;;;3.70;;
7919;SDS011;18778;47.610;9.776;2023-06-14T07:30:25;4.87;;;4.37;;
7919;SDS011;18778;47.610;9.776;2023-06-14T07:32:52;4.70;;;3.97;;
7919;SDS011;18778;47.610;9.776;2023-06-14T07:35:18;7.17;;;4.10;;
7919;SDS011;18778;47.610;9.776;2023-06-14T07:37:44;4.50;;;4.10;;
7919;SDS011;18778;47.610;9.776;2023-06-14T07:40:14;4.97;;;4.23;;
7919;SDS011;18778;47.610;9.776;2023-06-14T07:42:42;4.87;;;4.33;;
7919;SDS011;18778;47.610;9.776;2023-06-14T07:45:09;8.17;;;4.20;;
7919;SDS011;18778;47.610;9.776;2023-06-14T07:47:40;6.87;;;4.40;;
7919;SDS011;18778;47.610;9.776;2023-06-14T07:50:09;7.23;;;4.20;;
7919;SDS011;18778;47.610;9.776;2023-06-14T07:52:35;4.93;;;3.67;;
7919;SDS011;18778;47.610;9.776;2023-06-14T07:55:00;4.10;;;3.77;;
7919;SDS011;18778;47.610;9.776;2023-06-14T07:57:26;4.20;;;3.80;;
7919;SDS011;18778;47.610;9.776;2023-06-14T07:59:52;4.60;;;4.13;;
7919;SDS011;18778;47.610;9.776;2023-06-14T08:02:17;5.00;;;3.80;;
7919;SDS011;18778;47.610;9.776;2023-06-14T08:04:43;4.20;;;3.80;;
7919;SDS011;18778;47.610;9.776;2023-06-14T08:07:09;5.43;;;3.80;;
7919;SDS011;18778;47.610;9.776;2023-06-14T08:09:35;5.97;;;3.60;;
7919;SDS011;18778;47.610;9.776;2023-06-14T08:12:03;5.13;;;4.10;;
7919;SDS011;18778;47.610;9.776;2023-06-14T08:14:32;4.63;;;3.87;;
7919;SDS011;18778;47.610;9.776;2023-06-14T08:16:58;5.23;;;4.07;;
7919;SDS011;18778;47.610;9.776;2023-06-14T08:19:24;6.20;;;3.93;;
7919;SDS011;18778;47.610;9.776;2023-06-14T08:21:49;5.20;;;3.73;;
7919;SDS011;18778;47.610;9.776;2023-06-14T08:24:15;3.83;;;3.40;;
7919;SDS011;18778;47.610;9.776;2023-06-14T08:26:42;6.27;;;4.10;;
7919;SDS011;18778;47.610;9.776;2023-06-14T08:29:08;6.47;;;4.10;;
7919;SDS011;18778;47.610;9.776;2023-06-14T08:31:33;7.83;;;3.90;;
7919;SDS011;18778;47.610;9.776;2023-06-14T08:33:59;3.73;;;3.43;;
7919;SDS011;18778;47.610;9.776;2023-06-14T08:36:24;4.97;;;4.33;;
7919;SDS011;18778;47.610;9.776;2023-06-14T08:38:50;4.33;;;3.97;;
7919;SDS011;18778;47.610;9.776;2023-06-14T08:41:20;5.40;;;3.57;;
7919;SDS011;18778;47.610;9.776;2023-06-14T08:43:47;5.47;;;4.13;;
7919;SDS011;18778;47.610;9.776;2023-06-14T08:46:13;6.17;;;3.77;;
7919;SDS011;18778;47.610;9.776;2023-06-14T08:48:44;5.83;;;3.43;;
7919;SDS011;18778;47.610;9.776;2023-06-14T08:51:15;4.40;;;3.60;;
7919;SDS011;18778;47.610;9.776;2023-06-14T08:53:43;4.77;;;3.57;;
7919;SDS011;18778;47.610;9.776;2023-06-14T08:56:10;5.47;;;3.80;;
7919;SDS011;18778;47.610;9.776;2023-06-14T08:58:42;4.70;;;3.83;;
7919;SDS011;18778;47.610;9.776;2023-06-14T09:01:10;5.20;;;3.67;;
7919;SDS011;18778;47.610;9.776;2023-06-14T09:03:41;3.73;;;3.43;;
7919;SDS011;18778;47.610;9.776;2023-06-14T09:06:07;5.27;;;4.03;;
7919;SDS011;18778;47.610;9.776;2023-06-14T09:08:47;7.70;;;3.80;;
7919;SDS011;18778;47.610;9.776;2023-06-14T09:11:14;3.77;;;3.47;;
7919;SDS011;18778;47.610;9.776;2023-06-14T09:13:43;4.63;;;3.40;;
7919;SDS011;18778;47.610;9.776;2023-06-14T09:16:10;4.70;;;3.77;;
7919;SDS011;18778;47.610;9.776;2023-06-14T09:18:36;4.00;;;3.70;;
7919;SDS011;18778;47.610;9.776;2023-06-14T09:21:15;4.53;;;4.07;;
7919;SDS011;18778;47.610;9.776;2023-06-14T09:23:46;7.83;;;4.07;;
7919;SDS011;18778;47.610;9.776;2023-06-14T09:26:14;4.13;;;3.77;;
7919;SDS011;18778;47.610;9.776;2023-06-14T09:28:41;4.90;;;3.97;;
7919;SDS011;18778;47.610;9.776;2023-06-14T09:31:09;7.23;;;4.07;;
7919;SDS011;18778;47.610;9.776;2023-06-14T09:33:36;4.10;;;3.50;;
7919;SDS011;18778;47.610;9.776;2023-06-14T09:36:02;4.57;;;4.20;;
7919;SDS011;18778;47.610;9.776;2023-06-14T09:38:28;4.43;;;3.73;;
7919;SDS011;18778;47.610;9.776;2023-06-14T09:40:56;5.97;;;3.80;;
7919;SDS011;18778;47.610;9.776;2023-06-14T09:43:23;4.43;;;3.87;;
7919;SDS011;18778;47.610;9.776;2023-06-14T09:45:48;4.17;;;3.60;;
7919;SDS011;18778;47.610;9.776;2023-06-14T09:48:16;4.93;;;4.10;;
7919;SDS011;18778;47.610;9.776;2023-06-14T09:50:45;3.77;;;3.57;;
7919;SDS011;18778;47.610;9.776;2023-06-14T09:53:15;4.43;;;3.47;;
7919;SDS011;18778;47.610;9.776;2023-06-14T09:55:43;4.93;;;3.57;;
7919;SDS011;18778;47.610;9.776;2023-06-14T09:58:10;7.33;;;3.83;;
7919;SDS011;18778;47.610;9.776;2023-06-14T10:00:37;3.90;;;3.20;;
7919;SDS011;18778;47.610;9.776;2023-06-14T10:03:14;5.77;;;3.73;;
7919;SDS011;18778;47.610;9.776;2023-06-14T10:05:45;4.20;;;3.40;;
7919;SDS011;18778;47.610;9.776;2023-06-14T10:08:15;4.77;;;3.57;;
7919;SDS011;18778;47.610;9.776;2023-06-14T10:10:43;3.77;;;3.47;;
7919;SDS011;18778;47.610;9.776;2023-06-14T10:13:09;4.40;;;3.30;;
7919;SDS011;18778;47.610;9.776;2023-06-14T10:16:19;4.43;;;3.90;;
7919;SDS011;18778;47.610;9.776;2023-06-14T10:18:59;3.67;;;3.47;;
7919;SDS011;18778;47.610;9.776;2023-06-14T10:23:59;4.60;;;4.20;;
7919;SDS011;18778;47.610;9.776;2023-06-14T10:26:30;4.07;;;3.63;;
7919;SDS011;18778;47.610;9.776;2023-06-14T10:29:00;4.57;;;3.63;;
7919;SDS011;18778;47.610;9.776;2023-06-14T10:31:48;3.97;;;3.53;;
7919;SDS011;18778;47.610;9.776;2023-06-14T10:34:21;3.97;;;3.63;;
7919;SDS011;18778;47.610;9.776;2023-06-14T10:37:04;5.30;;;3.70;;
7919;SDS011;18778;47.610;9.776;2023-06-14T10:39:31;4.53;;;4.00;;
7919;SDS011;18778;47.610;9.776;2023-06-14T10:41:58;4.13;;;3.37;;
7919;SDS011;18778;47.610;9.776;2023-06-14T10:46:55;4.23;;;3.50;;
7919;SDS011;18778;47.610;9.776;2023-06-14T10:50:02;4.27;;;3.33;;
7919;SDS011;18778;47.610;9.776;2023-06-14T10:52:32;4.03;;;3.33;;
7919;SDS011;18778;47.610;9.776;2023-06-14T10:57:26;6.40;;;3.70;;
7919;SDS011;18778;47.610;9.776;2023-06-14T10:59:52;4.63;;;3.50;;
7919;SDS011;18778;47.610;9.776;2023-06-14T11:04:49;4.03;;;3.63;;
7919;SDS011;18778;47.610;9.776;2023-06-14T11:09:57;4.03;;;3.60;;
7919;SDS011;18778;47.610;9.776;2023-06-14T11:12:37;3.77;;;3.47;;
7919;SDS011;18778;47.610;9.776;2023-06-14T11:15:07;3.77;;;3.47;;
7919;SDS011;18778;47.610;9.776;2023-06-14T11:17:33;4.17;;;3.10;;
7919;SDS011;18778;47.610;9.776;2023-06-14T11:20:09;4.03;;;3.37;;
7919;SDS011;18778;47.610;9.776;2023-06-14T11:22:40;6.00;;;3.50;;
7919;SDS011;18778;47.610;9.776;2023-06-14T11:25:09;6.27;;;3.50;;
7919;SDS011;18778;47.610;9.776;2023-06-14T11:27:35;4.03;;;3.60;;
7919;SDS011;18778;47.610;9.776;2023-06-14T11:30:01;4.43;;;3.77;;
7919;SDS011;18778;47.610;9.776;2023-06-14T11:32:27;4.57;;;3.73;;
7919;SDS011;18778;47.610;9.776;2023-06-14T11:34:55;5.37;;;4.00;;
7919;SDS011;18778;47.610;9.776;2023-06-14T11:37:23;6.27;;;3.77;;
7919;SDS011;18778;47.610;9.776;2023-06-14T11:39:51;5.17;;;4.10;;
7919;SDS011;18778;47.610;9.776;2023-06-14T11:42:17;7.63;;;3.80;;
7919;SDS011;18778;47.610;9.776;2023-06-14T11:44:46;4.30;;;3.90;;
7919;SDS011;18778;47.610;9.776;2023-06-14T11:47:14;8.07;;;4.20;;
7919;SDS011;18778;47.610;9.776;2023-06-14T11:49:40;4.57;;;3.90;;
7919;SDS011;18778;47.610;9.776;2023-06-14T11:52:07;4.33;;;3.93;;
7919;SDS011;18778;47.610;9.776;2023-06-14T11:54:33;4.73;;;3.50;;
7919;SDS011;18778;47.610;9.776;2023-06-14T11:56:59;4.53;;;3.80;;
7919;SDS011;18778;47.610;9.776;2023-06-14T11:59:25;6.20;;;3.80;;
7919;SDS011;18778;47.610;9.776;2023-06-14T12:01:55;5.93;;;3.90;;
7919;SDS011;18778;47.610;9.776;2023-06-14T12:04:24;6.13;;;3.93;;
7919;SDS011;18778;47.610;9.776;2023-06-14T12:06:52;4.83;;;3.80;;
7919;SDS011;18778;47.610;9.776;2023-06-14T12:09:20;4.07;;;3.67;;
7919;SDS011;18778;47.610;9.776;2023-06-14T12:11:51;5.73;;;3.90;;
7919;SDS011;18778;47.610;9.776;2023-06-14T12:14:30;4.03;;;3.73;;
7919;SDS011;18778;47.610;9.776;2023-06-14T12:17:03;8.27;;;3.80;;
7919;SDS011;18778;47.610;9.776;2023-06-14T12:19:31;6.07;;;4.00;;
7919;SDS011;18778;47.610;9.776;2023-06-14T12:21:59;5.40;;;3.70;;
7919;SDS011;18778;47.610;9.776;2023-06-14T12:24:29;3.53;;;3.23;;
7919;SDS011;18778;47.610;9.776;2023-06-14T12:26:57;4.30;;;3.80;;
7919;SDS011;18778;47.610;9.776;2023-06-14T12:29:28;4.20;;;3.80;;
7919;SDS011;18778;47.610;9.776;2023-06-14T12:31:54;3.93;;;3.47;;
7919;SDS011;18778;47.610;9.776;2023-06-14T12:34:22;5.30;;;3.83;;
7919;SDS011;18778;47.610;9.776;2023-06-14T12:36:49;4.53;;;3.80;;
7919;SDS011;18778;47.610;9.776;2023-06-14T12:39:18;5.67;;;3.83;;
7919;SDS011;18778;47.610;9.776;2023-06-14T12:41:44;5.07;;;3.63;;
7919;SDS011;18778;47.610;9.776;2023-06-14T12:44:11;4.17;;;3.57;;
7919;SDS011;18778;47.610;9.776;2023-06-14T12:46:37;4.30;;;3.80;;
7919;SDS011;18778;47.610;9.776;2023-06-14T12:49:04;4.00;;;3.70;;
7919;SDS011;18778;47.610;9.776;2023-06-14T12:51:31;4.30;;;3.27;;
7919;SDS011;18778;47.610;9.776;2023-06-14T12:53:57;3.50;;;3.20;;
7919;SDS011;18778;47.610;9.776;2023-06-14T12:56:26;4.30;;;3.53;;
7919;SDS011;18778;47.610;9.776;2023-06-14T12:58:52;5.27;;;3.53;;
7919;SDS011;18778;47.610;9.776;2023-06-14T13:01:18;3.95;;;3.53;;
7919;SDS011;18778;47.610;9.776;2023-06-14T13:03:47;6.07;;;3.70;;
7919;SDS011;18778;47.610;9.776;2023-06-14T13:06:14;3.90;;;3.60;;
7919;SDS011;18778;47.610;9.776;2023-06-14T13:08:40;4.53;;;3.33;;
7919;SDS011;18778;47.610;9.776;2023-06-14T13:11:06;4.60;;;3.50;;
7919;SDS011;18778;47.610;9.776;2023-06-14T13:13:32;7.47;;;3.63;;
7919;SDS011;18778;47.610;9.776;2023-06-14T13:15:58;4.70;;;3.43;;
7919;SDS011;18778;47.610;9.776;2023-06-14T13:18:33;5.70;;;3.57;;
7919;SDS011;18778;47.610;9.776;2023-06-14T13:21:08;5.57;;;3.67;;
7919;SDS011;18778;47.610;9.776;2023-06-14T13:23:34;5.87;;;3.40;;
7919;SDS011;18778;47.610;9.776;2023-06-14T13:26:00;5.70;;;3.47;;
7919;SDS011;18778;47.610;9.776;2023-06-14T13:28:26;3.88;;;3.33;;
7919;SDS011;18778;47.610;9.776;2023-06-14T13:30:52;3.63;;;3.30;;
7919;SDS011;18778;47.610;9.776;2023-06-14T13:33:18;6.15;;;2.88;;
7919;SDS011;18778;47.610;9.776;2023-06-14T13:35:44;4.20;;;3.10;;
7919;SDS011;18778;47.610;9.776;2023-06-14T13:38:09;5.20;;;3.38;;
7919;SDS011;18778;47.610;9.776;2023-06-14T13:40:36;3.72;;;3.25;;
7919;SDS011;18778;47.610;9.776;2023-06-14T13:43:02;4.18;;;3.25;;
7919;SDS011;18778;47.610;9.776;2023-06-14T13:45:28;3.60;;;2.85;;
7919;SDS011;18778;47.610;9.776;2023-06-14T13:47:56;5.45;;;3.22;;
7919;SDS011;18778;47.610;9.776;2023-06-14T13:50:22;5.80;;;3.35;;
7919;SDS011;18778;47.610;9.776;2023-06-14T13:52:48;6.38;;;3.45;;
7919;SDS011;18778;47.610;9.776;2023-06-14T13:55:17;6.45;;;3.60;;
7919;SDS011;18778;47.610;9.776;2023-06-14T13:57:43;4.38;;;3.42;;
7919;SDS011;18778;47.610;9.776;2023-06-14T14:00:10;3.78;;;3.40;;
7919;SDS011;18778;47.610;9.776;2023-06-14T14:02:36;5.40;;;3.20;;
7919;SDS011;18778;47.610;9.776;2023-06-14T14:05:02;3.67;;;3.00;;
7919;SDS011;18778;47.610;9.776;2023-06-14T14:07:28;3.97;;;3.00;;
7919;SDS011;18778;47.610;9.776;2023-06-14T14:10:03;3.60;;;3.30;;
7919;SDS011;18778;47.610;9.776;2023-06-14T14:12:29;3.63;;;3.00;;
7919;SDS011;18778;47.610;9.776;2023-06-14T14:14:55;3.10;;;2.80;;
7919;SDS011;18778;47.610;9.776;2023-06-14T14:17:21;6.75;;;2.97;;
7919;SDS011;18778;47.610;9.776;2023-06-14T14:19:46;5.28;;;2.88;;
7919;SDS011;18778;47.610;9.776;2023-06-14T14:22:13;2.80;;;2.60;;
7919;SDS011;18778;47.610;9.776;2023-06-14T14:24:38;3.22;;;2.92;;
7919;SDS011;18778;47.610;9.776;2023-06-14T14:27:05;4.05;;;2.80;;
7919;SDS011;18778;47.610;9.776;2023-06-14T14:29:31;3.72;;;2.72;;
7919;SDS011;18778;47.610;9.776;2023-06-14T14:31:57;5.28;;;2.80;;
7919;SDS011;18778;47.610;9.776;2023-06-14T14:34:26;3.00;;;2.67;;
7919;SDS011;18778;47.610;9.776;2023-06-14T14:36:52;3.05;;;2.75;;
7919;SDS011;18778;47.610;9.776;2023-06-14T14:39:18;2.67;;;2.50;;
7919;SDS011;18778;47.610;9.776;2023-06-14T14:41:44;5.70;;;2.70;;
7919;SDS011;18778;47.610;9.776;2023-06-14T14:44:10;2.88;;;2.10;;
7919;SDS011;18778;47.610;9.776;2023-06-14T14:46:36;2.92;;;2.22;;
7919;SDS011;18778;47.610;9.776;2023-06-14T14:49:02;2.60;;;2.40;;
7919;SDS011;18778;47.610;9.776;2023-06-14T14:51:28;3.30;;;2.38;;
7919;SDS011;18778;47.610;9.776;2023-06-14T14:53:54;3.15;;;2.33;;
7919;SDS011;18778;47.610;9.776;2023-06-14T14:56:22;5.20;;;2.30;;
7919;SDS011;18778;47.610;9.776;2023-06-14T14:58:48;2.97;;;2.50;;
7919;SDS011;18778;47.610;9.776;2023-06-14T15:01:15;2.88;;;2.50;;
7919;SDS011;18778;47.610;9.776;2023-06-14T15:03:41;6.28;;;2.10;;
7919;SDS011;18778;47.610;9.776;2023-06-14T15:06:07;2.60;;;2.40;;
7919;SDS011;18778;47.610;9.776;2023-06-14T15:08:33;2.38;;;2.17;;
7919;SDS011;18778;47.610;9.776;2023-06-14T15:10:59;4.00;;;2.38;;
7919;SDS011;18778;47.610;9.776;2023-06-14T15:13:27;4.97;;;2.72;;
7919;SDS011;18778;47.610;9.776;2023-06-14T15:15:53;2.40;;;2.20;;
7919;SDS011;18778;47.610;9.776;2023-06-14T15:18:19;3.65;;;2.47;;
7919;SDS011;18778;47.610;9.776;2023-06-14T15:20:46;3.15;;;2.40;;
7919;SDS011;18778;47.610;9.776;2023-06-14T15:23:12;2.60;;;2.40;;
7919;SDS011;18778;47.610;9.776;2023-06-14T15:25:44;5.45;;;2.47;;
7919;SDS011;18778;47.610;9.776;2023-06-14T15:28:10;5.03;;;2.30;;
7919;SDS011;18778;47.610;9.776;2023-06-14T15:30:35;4.55;;;2.60;;